sensor_id;sensor_type;location;lat;lon;timestamp;P1;durP1;ratioP1;P2;durP2;ratioP2
47599;SDS011;33323;52.124;6.018;2023-04-29T00:01:23;34.75;;;17.48;;
47599;SDS011;33323;52.124;6.018;2023-04-29T00:03:51;35.92;;;16.15;;
47599;SDS011;33323;52.124;6.018;2023-04-29T00:06:19;29.92;;;17.55;;
47599;SDS011;33323;52.124;6.018;2023-04-29T00:08:46;31.73;;;16.75;;
47599;SDS011;33323;52.124;6.018;2023-04-29T00:11:13;29.10;;;16.05;;
47599;SDS011;33323;52.124;6.018;2023-04-29T00:13:40;28.80;;;16.63;;
47599;SDS011;33323;52.124;6.018;2023-04-29T00:16:08;40.05;;;17.88;;
47599;SDS011;33323;52.124;6.018;2023-04-29T00:18:39;38.42;;;18.52;;
47599;SDS011;33323;52.124;6.018;2023-04-29T00:21:06;35.10;;;17.20;;
47599;SDS011;33323;52.124;6.018;2023-04-29T00:23:33;33.92;;;17.60;;
47599;SDS011;33323;52.124;6.018;2023-04-29T00:26:00;32.40;;;15.68;;
47599;SDS011;33323;52.124;6.018;2023-04-29T00:28:27;34.88;;;18.45;;
47599;SDS011;33323;52.124;6.018;2023-04-29T00:30:54;34.28;;;17.83;;
47599;SDS011;33323;52.124;6.018;2023-04-29T00:33:21;38.40;;;17.98;;
47599;SDS011;33323;52.124;6.018;2023-04-29T00:35:49;31.52;;;17.38;;
47599;SDS011;33323;52.124;6.018;2023-04-29T00:38:16;40.38;;;18.60;;
47599;SDS011;33323;52.124;6.018;2023-04-29T00:40:43;40.15;;;20.00;;
47599;SDS011;33323;52.124;6.018;2023-04-29T00:43:10;39.90;;;18.85;;
47599;SDS011;33323;52.124;6.018;2023-04-29T00:45:37;37.30;;;18.85;;
47599;SDS011;33323;52.124;6.018;2023-04-29T00:48:05;37.83;;;18.38;;
47599;SDS011;33323;52.124;6.018;2023-04-29T00:50:33;37.28;;;19.42;;
47599;SDS011;33323;52.124;6.018;2023-04-29T00:53:02;35.92;;;19.23;;
47599;SDS011;33323;52.124;6.018;2023-04-29T00:55:29;38.83;;;20.80;;
47599;SDS011;33323;52.124;6.018;2023-04-29T00:57:58;38.25;;;20.15;;
47599;SDS011;33323;52.124;6.018;2023-04-29T01:00:26;42.42;;;21.60;;
47599;SDS011;33323;52.124;6.018;2023-04-29T01:02:53;37.25;;;17.17;;
47599;SDS011;33323;52.124;6.018;2023-04-29T01:05:22;38.22;;;17.92;;
47599;SDS011;33323;52.124;6.018;2023-04-29T01:10:44;42.05;;;19.52;;
47599;SDS011;33323;52.124;6.018;2023-04-29T01:13:36;37.90;;;18.75;;
47599;SDS011;33323;52.124;6.018;2023-04-29T01:16:20;35.75;;;18.42;;
47599;SDS011;33323;52.124;6.018;2023-04-29T01:18:57;39.38;;;18.02;;
47599;SDS011;33323;52.124;6.018;2023-04-29T01:21:44;36.22;;;17.95;;
47599;SDS011;33323;52.124;6.018;2023-04-29T01:24:14;37.60;;;18.25;;
47599;SDS011;33323;52.124;6.018;2023-04-29T01:26:48;37.47;;;18.13;;
47599;SDS011;33323;52.124;6.018;2023-04-29T01:29:58;39.30;;;16.95;;
47599;SDS011;33323;52.124;6.018;2023-04-29T01:32:42;37.38;;;16.48;;
47599;SDS011;33323;52.124;6.018;2023-04-29T01:41:26;31.70;;;15.70;;
47599;SDS011;33323;52.124;6.018;2023-04-29T01:44:21;33.05;;;18.23;;
47599;SDS011;33323;52.124;6.018;2023-04-29T01:46:51;27.52;;;15.85;;
47599;SDS011;33323;52.124;6.018;2023-04-29T01:49:24;28.50;;;16.17;;
47599;SDS011;33323;52.124;6.018;2023-04-29T01:51:53;29.65;;;16.02;;
47599;SDS011;33323;52.124;6.018;2023-04-29T01:54:21;32.45;;;16.60;;
47599;SDS011;33323;52.124;6.018;2023-04-29T01:56:49;28.60;;;15.00;;
47599;SDS011;33323;52.124;6.018;2023-04-29T01:59:25;29.00;;;14.05;;
47599;SDS011;33323;52.124;6.018;2023-04-29T02:02:06;27.33;;;14.07;;
47599;SDS011;33323;52.124;6.018;2023-04-29T02:04:37;27.45;;;13.68;;
47599;SDS011;33323;52.124;6.018;2023-04-29T02:07:04;25.92;;;15.40;;
47599;SDS011;33323;52.124;6.018;2023-04-29T02:09:31;26.23;;;13.63;;
47599;SDS011;33323;52.124;6.018;2023-04-29T02:12:05;28.77;;;13.30;;
47599;SDS011;33323;52.124;6.018;2023-04-29T02:14:32;22.67;;;12.30;;
47599;SDS011;33323;52.124;6.018;2023-04-29T02:17:03;23.52;;;11.40;;
47599;SDS011;33323;52.124;6.018;2023-04-29T02:19:30;22.83;;;13.23;;
47599;SDS011;33323;52.124;6.018;2023-04-29T02:21:57;20.58;;;12.52;;
47599;SDS011;33323;52.124;6.018;2023-04-29T02:24:24;19.70;;;11.57;;
47599;SDS011;33323;52.124;6.018;2023-04-29T02:26:52;25.77;;;13.40;;
47599;SDS011;33323;52.124;6.018;2023-04-29T02:29:19;21.52;;;12.15;;
47599;SDS011;33323;52.124;6.018;2023-04-29T02:31:47;20.63;;;11.55;;
47599;SDS011;33323;52.124;6.018;2023-04-29T02:34:14;22.23;;;12.57;;
47599;SDS011;33323;52.124;6.018;2023-04-29T02:36:41;21.73;;;13.93;;
47599;SDS011;33323;52.124;6.018;2023-04-29T02:39:08;21.92;;;12.77;;
47599;SDS011;33323;52.124;6.018;2023-04-29T02:41:36;19.98;;;11.57;;
47599;SDS011;33323;52.124;6.018;2023-04-29T02:44:03;19.17;;;11.13;;
47599;SDS011;33323;52.124;6.018;2023-04-29T02:46:30;21.60;;;11.90;;
47599;SDS011;33323;52.124;6.018;2023-04-29T02:48:59;27.50;;;12.35;;
47599;SDS011;33323;52.124;6.018;2023-04-29T02:51:27;16.95;;;10.60;;
47599;SDS011;33323;52.124;6.018;2023-04-29T02:53:54;23.65;;;12.07;;
47599;SDS011;33323;52.124;6.018;2023-04-29T02:56:21;20.05;;;12.43;;
47599;SDS011;33323;52.124;6.018;2023-04-29T02:58:48;27.15;;;13.32;;
47599;SDS011;33323;52.124;6.018;2023-04-29T03:01:15;24.02;;;13.70;;
47599;SDS011;33323;52.124;6.018;2023-04-29T03:03:42;25.83;;;12.45;;
47599;SDS011;33323;52.124;6.018;2023-04-29T03:06:10;20.35;;;11.63;;
47599;SDS011;33323;52.124;6.018;2023-04-29T03:08:37;21.23;;;13.48;;
47599;SDS011;33323;52.124;6.018;2023-04-29T03:11:04;23.63;;;12.65;;
47599;SDS011;33323;52.124;6.018;2023-04-29T03:13:31;23.55;;;14.30;;
47599;SDS011;33323;52.124;6.018;2023-04-29T03:15:59;24.25;;;13.15;;
47599;SDS011;33323;52.124;6.018;2023-04-29T03:18:26;26.48;;;13.43;;
47599;SDS011;33323;52.124;6.018;2023-04-29T03:20:53;23.20;;;13.02;;
47599;SDS011;33323;52.124;6.018;2023-04-29T03:23:20;26.83;;;13.90;;
47599;SDS011;33323;52.124;6.018;2023-04-29T03:25:47;28.88;;;13.25;;
47599;SDS011;33323;52.124;6.018;2023-04-29T03:28:15;22.35;;;13.15;;
47599;SDS011;33323;52.124;6.018;2023-04-29T03:30:42;31.40;;;14.75;;
47599;SDS011;33323;52.124;6.018;2023-04-29T03:33:09;29.63;;;13.80;;
47599;SDS011;33323;52.124;6.018;2023-04-29T03:35:36;23.45;;;11.90;;
47599;SDS011;33323;52.124;6.018;2023-04-29T03:38:21;19.70;;;12.03;;
47599;SDS011;33323;52.124;6.018;2023-04-29T03:40:50;22.65;;;12.63;;
47599;SDS011;33323;52.124;6.018;2023-04-29T03:43:17;23.20;;;13.23;;
47599;SDS011;33323;52.124;6.018;2023-04-29T03:45:44;23.23;;;13.65;;
47599;SDS011;33323;52.124;6.018;2023-04-29T03:48:15;28.60;;;13.57;;
47599;SDS011;33323;52.124;6.018;2023-04-29T03:50:42;23.05;;;13.45;;
47599;SDS011;33323;52.124;6.018;2023-04-29T03:53:09;21.80;;;12.32;;
47599;SDS011;33323;52.124;6.018;2023-04-29T03:55:38;23.98;;;12.73;;
47599;SDS011;33323;52.124;6.018;2023-04-29T03:58:05;27.88;;;14.30;;
47599;SDS011;33323;52.124;6.018;2023-04-29T04:00:32;23.48;;;13.82;;
47599;SDS011;33323;52.124;6.018;2023-04-29T04:03:03;27.77;;;14.82;;
47599;SDS011;33323;52.124;6.018;2023-04-29T04:05:33;25.27;;;13.27;;
47599;SDS011;33323;52.124;6.018;2023-04-29T04:08:06;25.15;;;13.85;;
47599;SDS011;33323;52.124;6.018;2023-04-29T04:10:50;31.30;;;15.93;;
47599;SDS011;33323;52.124;6.018;2023-04-29T04:13:43;29.83;;;14.63;;
47599;SDS011;33323;52.124;6.018;2023-04-29T04:16:11;37.83;;;15.93;;
47599;SDS011;33323;52.124;6.018;2023-04-29T04:18:38;27.25;;;14.45;;
47599;SDS011;33323;52.124;6.018;2023-04-29T04:23:38;25.17;;;15.60;;
47599;SDS011;33323;52.124;6.018;2023-04-29T04:26:08;26.20;;;15.65;;
47599;SDS011;33323;52.124;6.018;2023-04-29T04:28:58;26.45;;;14.38;;
47599;SDS011;33323;52.124;6.018;2023-04-29T04:31:52;25.63;;;16.00;;
47599;SDS011;33323;52.124;6.018;2023-04-29T04:34:20;25.73;;;14.63;;
47599;SDS011;33323;52.124;6.018;2023-04-29T04:36:50;28.58;;;14.88;;
47599;SDS011;33323;52.124;6.018;2023-04-29T04:39:17;25.40;;;15.05;;
47599;SDS011;33323;52.124;6.018;2023-04-29T04:41:45;28.27;;;15.73;;
47599;SDS011;33323;52.124;6.018;2023-04-29T04:44:12;26.35;;;16.52;;
47599;SDS011;33323;52.124;6.018;2023-04-29T04:46:49;28.55;;;15.65;;
47599;SDS011;33323;52.124;6.018;2023-04-29T04:49:32;22.90;;;14.75;;
47599;SDS011;33323;52.124;6.018;2023-04-29T04:52:00;24.23;;;14.18;;
47599;SDS011;33323;52.124;6.018;2023-04-29T04:54:27;26.73;;;15.88;;
47599;SDS011;33323;52.124;6.018;2023-04-29T04:57:04;24.15;;;15.18;;
47599;SDS011;33323;52.124;6.018;2023-04-29T04:59:32;23.23;;;14.32;;
47599;SDS011;33323;52.124;6.018;2023-04-29T05:02:00;25.58;;;13.48;;
47599;SDS011;33323;52.124;6.018;2023-04-29T05:04:27;30.55;;;15.63;;
47599;SDS011;33323;52.124;6.018;2023-04-29T05:06:55;26.77;;;14.60;;
47599;SDS011;33323;52.124;6.018;2023-04-29T05:09:26;32.10;;;14.82;;
47599;SDS011;33323;52.124;6.018;2023-04-29T05:11:54;25.02;;;14.50;;
47599;SDS011;33323;52.124;6.018;2023-04-29T05:14:22;25.95;;;14.50;;
47599;SDS011;33323;52.124;6.018;2023-04-29T05:16:49;24.02;;;13.57;;
47599;SDS011;33323;52.124;6.018;2023-04-29T05:19:18;26.52;;;13.75;;
47599;SDS011;33323;52.124;6.018;2023-04-29T05:21:46;26.38;;;14.05;;
47599;SDS011;33323;52.124;6.018;2023-04-29T05:24:13;23.20;;;13.38;;
47599;SDS011;33323;52.124;6.018;2023-04-29T05:26:41;28.65;;;14.30;;
47599;SDS011;33323;52.124;6.018;2023-04-29T05:29:09;22.63;;;13.73;;
47599;SDS011;33323;52.124;6.018;2023-04-29T05:31:58;26.40;;;14.27;;
47599;SDS011;33323;52.124;6.018;2023-04-29T05:34:25;26.40;;;14.40;;
47599;SDS011;33323;52.124;6.018;2023-04-29T05:36:52;27.23;;;16.45;;
47599;SDS011;33323;52.124;6.018;2023-04-29T05:39:20;22.23;;;14.52;;
47599;SDS011;33323;52.124;6.018;2023-04-29T05:41:59;23.40;;;13.80;;
47599;SDS011;33323;52.124;6.018;2023-04-29T05:44:35;28.63;;;15.40;;
47599;SDS011;33323;52.124;6.018;2023-04-29T05:47:04;20.58;;;14.48;;
47599;SDS011;33323;52.124;6.018;2023-04-29T05:49:31;26.40;;;15.40;;
47599;SDS011;33323;52.124;6.018;2023-04-29T05:51:59;26.40;;;14.98;;
47599;SDS011;33323;52.124;6.018;2023-04-29T05:54:36;24.42;;;13.25;;
47599;SDS011;33323;52.124;6.018;2023-04-29T05:57:05;29.33;;;15.25;;
47599;SDS011;33323;52.124;6.018;2023-04-29T05:59:32;26.42;;;15.52;;
47599;SDS011;33323;52.124;6.018;2023-04-29T06:02:03;24.80;;;14.90;;
47599;SDS011;33323;52.124;6.018;2023-04-29T06:04:33;24.73;;;15.70;;
47599;SDS011;33323;52.124;6.018;2023-04-29T06:07:18;29.38;;;14.93;;
47599;SDS011;33323;52.124;6.018;2023-04-29T06:10:11;25.98;;;15.13;;
47599;SDS011;33323;52.124;6.018;2023-04-29T06:12:41;24.42;;;14.43;;
47599;SDS011;33323;52.124;6.018;2023-04-29T06:15:08;24.02;;;13.60;;
47599;SDS011;33323;52.124;6.018;2023-04-29T06:17:36;27.17;;;15.07;;
47599;SDS011;33323;52.124;6.018;2023-04-29T06:20:03;28.65;;;14.80;;
47599;SDS011;33323;52.124;6.018;2023-04-29T06:22:32;25.95;;;13.48;;
47599;SDS011;33323;52.124;6.018;2023-04-29T06:24:59;29.52;;;15.25;;
47599;SDS011;33323;52.124;6.018;2023-04-29T06:27:46;27.80;;;14.88;;
47599;SDS011;33323;52.124;6.018;2023-04-29T06:30:17;28.85;;;14.23;;
47599;SDS011;33323;52.124;6.018;2023-04-29T06:32:44;25.38;;;14.02;;
47599;SDS011;33323;52.124;6.018;2023-04-29T06:35:11;25.38;;;14.55;;
47599;SDS011;33323;52.124;6.018;2023-04-29T06:37:57;29.50;;;14.10;;
47599;SDS011;33323;52.124;6.018;2023-04-29T06:40:47;23.27;;;14.05;;
47599;SDS011;33323;52.124;6.018;2023-04-29T06:43:29;27.25;;;13.10;;
47599;SDS011;33323;52.124;6.018;2023-04-29T06:46:02;23.40;;;12.13;;
47599;SDS011;33323;52.124;6.018;2023-04-29T06:48:37;25.75;;;13.98;;
47599;SDS011;33323;52.124;6.018;2023-04-29T06:51:04;23.58;;;13.30;;
47599;SDS011;33323;52.124;6.018;2023-04-29T06:53:36;23.40;;;12.13;;
47599;SDS011;33323;52.124;6.018;2023-04-29T06:56:03;23.77;;;12.90;;
47599;SDS011;33323;52.124;6.018;2023-04-29T06:58:32;20.23;;;12.95;;
47599;SDS011;33323;52.124;6.018;2023-04-29T07:00:59;19.35;;;12.50;;
47599;SDS011;33323;52.124;6.018;2023-04-29T07:03:28;22.60;;;11.90;;
47599;SDS011;33323;52.124;6.018;2023-04-29T07:05:56;19.63;;;11.18;;
47599;SDS011;33323;52.124;6.018;2023-04-29T07:08:23;19.90;;;11.25;;
47599;SDS011;33323;52.124;6.018;2023-04-29T07:10:55;26.50;;;12.65;;
47599;SDS011;33323;52.124;6.018;2023-04-29T07:13:23;29.02;;;12.10;;
47599;SDS011;33323;52.124;6.018;2023-04-29T07:15:51;23.10;;;10.82;;
47599;SDS011;33323;52.124;6.018;2023-04-29T07:18:18;19.58;;;10.32;;
47599;SDS011;33323;52.124;6.018;2023-04-29T07:20:45;22.10;;;11.45;;
47599;SDS011;33323;52.124;6.018;2023-04-29T07:23:13;19.80;;;9.68;;
47599;SDS011;33323;52.124;6.018;2023-04-29T07:25:40;21.15;;;10.35;;
47599;SDS011;33323;52.124;6.018;2023-04-29T07:28:08;20.73;;;11.57;;
47599;SDS011;33323;52.124;6.018;2023-04-29T07:30:35;24.95;;;13.20;;
47599;SDS011;33323;52.124;6.018;2023-04-29T07:33:03;17.95;;;10.20;;
47599;SDS011;33323;52.124;6.018;2023-04-29T07:35:30;19.25;;;11.13;;
47599;SDS011;33323;52.124;6.018;2023-04-29T07:37:58;16.52;;;9.73;;
47599;SDS011;33323;52.124;6.018;2023-04-29T07:40:29;21.42;;;11.23;;
47599;SDS011;33323;52.124;6.018;2023-04-29T07:42:56;22.17;;;10.68;;
47599;SDS011;33323;52.124;6.018;2023-04-29T07:45:24;21.40;;;10.50;;
47599;SDS011;33323;52.124;6.018;2023-04-29T07:47:51;18.65;;;10.68;;
47599;SDS011;33323;52.124;6.018;2023-04-29T07:50:19;18.42;;;9.95;;
47599;SDS011;33323;52.124;6.018;2023-04-29T07:52:46;21.45;;;11.60;;
47599;SDS011;33323;52.124;6.018;2023-04-29T07:55:15;17.25;;;9.57;;
47599;SDS011;33323;52.124;6.018;2023-04-29T07:57:42;20.20;;;10.90;;
47599;SDS011;33323;52.124;6.018;2023-04-29T08:00:09;20.42;;;10.68;;
47599;SDS011;33323;52.124;6.018;2023-04-29T08:02:40;18.75;;;10.48;;
47599;SDS011;33323;52.124;6.018;2023-04-29T08:05:11;21.00;;;9.98;;
47599;SDS011;33323;52.124;6.018;2023-04-29T08:07:39;17.25;;;10.63;;
47599;SDS011;33323;52.124;6.018;2023-04-29T08:10:06;17.35;;;9.45;;
47599;SDS011;33323;52.124;6.018;2023-04-29T08:12:35;17.30;;;10.00;;
47599;SDS011;33323;52.124;6.018;2023-04-29T08:15:03;16.48;;;10.15;;
47599;SDS011;33323;52.124;6.018;2023-04-29T08:17:33;18.70;;;10.77;;
47599;SDS011;33323;52.124;6.018;2023-04-29T08:20:01;19.85;;;11.77;;
47599;SDS011;33323;52.124;6.018;2023-04-29T08:22:28;16.60;;;10.80;;
47599;SDS011;33323;52.124;6.018;2023-04-29T08:24:55;18.10;;;9.80;;
47599;SDS011;33323;52.124;6.018;2023-04-29T08:27:23;16.02;;;9.23;;
47599;SDS011;33323;52.124;6.018;2023-04-29T08:29:50;16.73;;;9.88;;
47599;SDS011;33323;52.124;6.018;2023-04-29T08:32:17;15.65;;;10.27;;
47599;SDS011;33323;52.124;6.018;2023-04-29T08:34:44;21.20;;;11.10;;
47599;SDS011;33323;52.124;6.018;2023-04-29T08:37:11;19.73;;;9.93;;
47599;SDS011;33323;52.124;6.018;2023-04-29T08:39:38;20.50;;;9.93;;
47599;SDS011;33323;52.124;6.018;2023-04-29T08:42:08;14.48;;;9.55;;
47599;SDS011;33323;52.124;6.018;2023-04-29T08:44:36;17.13;;;9.60;;
47599;SDS011;33323;52.124;6.018;2023-04-29T08:47:06;17.23;;;9.43;;
47599;SDS011;33323;52.124;6.018;2023-04-29T08:49:34;18.92;;;8.93;;
47599;SDS011;33323;52.124;6.018;2023-04-29T08:52:03;14.38;;;9.00;;
47599;SDS011;33323;52.124;6.018;2023-04-29T08:54:31;16.90;;;9.00;;
47599;SDS011;33323;52.124;6.018;2023-04-29T08:56:58;14.43;;;8.90;;
47599;SDS011;33323;52.124;6.018;2023-04-29T08:59:28;14.35;;;8.82;;
47599;SDS011;33323;52.124;6.018;2023-04-29T09:01:55;12.75;;;8.48;;
47599;SDS011;33323;52.124;6.018;2023-04-29T09:06:57;13.68;;;8.05;;
47599;SDS011;33323;52.124;6.018;2023-04-29T09:09:25;16.90;;;9.85;;
47599;SDS011;33323;52.124;6.018;2023-04-29T09:11:53;10.65;;;7.43;;
47599;SDS011;33323;52.124;6.018;2023-04-29T09:14:21;14.00;;;8.02;;
47599;SDS011;33323;52.124;6.018;2023-04-29T09:16:49;12.60;;;8.23;;
47599;SDS011;33323;52.124;6.018;2023-04-29T09:19:30;12.45;;;7.55;;
47599;SDS011;33323;52.124;6.018;2023-04-29T09:22:00;15.40;;;8.27;;
47599;SDS011;33323;52.124;6.018;2023-04-29T09:24:29;14.65;;;7.55;;
47599;SDS011;33323;52.124;6.018;2023-04-29T09:26:57;13.27;;;7.30;;
47599;SDS011;33323;52.124;6.018;2023-04-29T09:29:25;10.48;;;7.22;;
47599;SDS011;33323;52.124;6.018;2023-04-29T09:31:52;12.80;;;7.55;;
47599;SDS011;33323;52.124;6.018;2023-04-29T09:34:32;9.23;;;6.90;;
47599;SDS011;33323;52.124;6.018;2023-04-29T09:37:02;12.60;;;6.68;;
47599;SDS011;33323;52.124;6.018;2023-04-29T09:39:36;10.00;;;6.63;;
47599;SDS011;33323;52.124;6.018;2023-04-29T09:42:08;10.65;;;6.47;;
47599;SDS011;33323;52.124;6.018;2023-04-29T09:44:35;11.35;;;6.85;;
47599;SDS011;33323;52.124;6.018;2023-04-29T09:47:03;10.23;;;6.15;;
47599;SDS011;33323;52.124;6.018;2023-04-29T09:49:36;10.88;;;6.95;;
47599;SDS011;33323;52.124;6.018;2023-04-29T09:52:11;14.02;;;6.95;;
47599;SDS011;33323;52.124;6.018;2023-04-29T09:54:42;9.75;;;6.68;;
47599;SDS011;33323;52.124;6.018;2023-04-29T09:57:10;11.57;;;6.85;;
47599;SDS011;33323;52.124;6.018;2023-04-29T09:59:41;16.30;;;7.05;;
47599;SDS011;33323;52.124;6.018;2023-04-29T10:02:11;10.23;;;7.22;;
47599;SDS011;33323;52.124;6.018;2023-04-29T10:04:41;10.80;;;7.05;;
47599;SDS011;33323;52.124;6.018;2023-04-29T10:07:15;9.00;;;5.20;;
47599;SDS011;33323;52.124;6.018;2023-04-29T10:09:44;10.23;;;5.82;;
47599;SDS011;33323;52.124;6.018;2023-04-29T10:12:17;11.00;;;5.50;;
47599;SDS011;33323;52.124;6.018;2023-04-29T10:14:52;8.18;;;5.78;;
47599;SDS011;33323;52.124;6.018;2023-04-29T10:17:35;13.73;;;5.78;;
47599;SDS011;33323;52.124;6.018;2023-04-29T10:20:12;9.98;;;5.43;;
47599;SDS011;33323;52.124;6.018;2023-04-29T10:22:47;9.85;;;5.20;;
47599;SDS011;33323;52.124;6.018;2023-04-29T10:25:16;12.48;;;4.60;;
47599;SDS011;33323;52.124;6.018;2023-04-29T10:27:48;7.70;;;4.78;;
47599;SDS011;33323;52.124;6.018;2023-04-29T10:30:19;8.50;;;5.03;;
47599;SDS011;33323;52.124;6.018;2023-04-29T10:32:48;9.82;;;5.25;;
47599;SDS011;33323;52.124;6.018;2023-04-29T10:35:19;8.32;;;4.90;;
47599;SDS011;33323;52.124;6.018;2023-04-29T10:37:51;6.97;;;4.85;;
47599;SDS011;33323;52.124;6.018;2023-04-29T10:43:06;10.55;;;5.03;;
47599;SDS011;33323;52.124;6.018;2023-04-29T10:45:33;6.25;;;3.97;;
47599;SDS011;33323;52.124;6.018;2023-04-29T10:50:31;9.00;;;5.05;;
47599;SDS011;33323;52.124;6.018;2023-04-29T10:53:00;7.70;;;4.53;;
47599;SDS011;33323;52.124;6.018;2023-04-29T10:55:31;7.13;;;4.72;;
47599;SDS011;33323;52.124;6.018;2023-04-29T10:58:03;12.15;;;4.95;;
47599;SDS011;33323;52.124;6.018;2023-04-29T11:00:32;8.05;;;5.18;;
47599;SDS011;33323;52.124;6.018;2023-04-29T11:03:01;9.30;;;5.60;;
47599;SDS011;33323;52.124;6.018;2023-04-29T11:05:32;7.85;;;4.53;;
47599;SDS011;33323;52.124;6.018;2023-04-29T11:10:41;8.10;;;4.93;;
47599;SDS011;33323;52.124;6.018;2023-04-29T11:13:19;8.23;;;4.80;;
47599;SDS011;33323;52.124;6.018;2023-04-29T11:16:02;8.05;;;4.60;;
47599;SDS011;33323;52.124;6.018;2023-04-29T11:21:34;7.68;;;4.20;;
47599;SDS011;33323;52.124;6.018;2023-04-29T11:24:03;6.22;;;3.90;;
47599;SDS011;33323;52.124;6.018;2023-04-29T11:26:35;4.43;;;2.53;;
47599;SDS011;33323;52.124;6.018;2023-04-29T11:29:05;8.18;;;3.83;;
47599;SDS011;33323;52.124;6.018;2023-04-29T11:31:37;6.38;;;3.17;;
47599;SDS011;33323;52.124;6.018;2023-04-29T11:34:05;6.15;;;4.45;;
47599;SDS011;33323;52.124;6.018;2023-04-29T11:36:33;6.65;;;4.07;;
47599;SDS011;33323;52.124;6.018;2023-04-29T11:39:01;6.53;;;3.30;;
47599;SDS011;33323;52.124;6.018;2023-04-29T11:41:30;6.00;;;4.00;;
47599;SDS011;33323;52.124;6.018;2023-04-29T11:43:58;6.93;;;3.85;;
47599;SDS011;33323;52.124;6.018;2023-04-29T11:46:29;7.40;;;3.50;;
47599;SDS011;33323;52.124;6.018;2023-04-29T11:48:56;5.68;;;3.90;;
47599;SDS011;33323;52.124;6.018;2023-04-29T11:51:25;6.78;;;4.15;;
47599;SDS011;33323;52.124;6.018;2023-04-29T11:53:54;4.80;;;3.50;;
47599;SDS011;33323;52.124;6.018;2023-04-29T11:56:23;6.35;;;3.35;;
47599;SDS011;33323;52.124;6.018;2023-04-29T11:58:57;6.18;;;2.97;;
47599;SDS011;33323;52.124;6.018;2023-04-29T12:01:26;7.18;;;3.03;;
47599;SDS011;33323;52.124;6.018;2023-04-29T12:03:57;6.88;;;2.90;;
47599;SDS011;33323;52.124;6.018;2023-04-29T12:06:28;3.90;;;2.70;;
47599;SDS011;33323;52.124;6.018;2023-04-29T12:08:57;3.95;;;3.00;;
47599;SDS011;33323;52.124;6.018;2023-04-29T12:11:25;6.15;;;3.38;;
47599;SDS011;33323;52.124;6.018;2023-04-29T12:13:54;6.35;;;3.72;;
47599;SDS011;33323;52.124;6.018;2023-04-29T12:16:22;4.82;;;3.58;;
47599;SDS011;33323;52.124;6.018;2023-04-29T12:18:51;6.07;;;3.10;;
47599;SDS011;33323;52.124;6.018;2023-04-29T12:21:18;7.40;;;2.97;;
47599;SDS011;33323;52.124;6.018;2023-04-29T12:23:47;6.00;;;3.30;;
47599;SDS011;33323;52.124;6.018;2023-04-29T12:26:14;7.35;;;3.53;;
47599;SDS011;33323;52.124;6.018;2023-04-29T12:28:43;4.93;;;2.72;;
47599;SDS011;33323;52.124;6.018;2023-04-29T12:31:10;3.95;;;1.80;;
47599;SDS011;33323;52.124;6.018;2023-04-29T12:33:37;4.47;;;1.98;;
47599;SDS011;33323;52.124;6.018;2023-04-29T12:36:14;2.80;;;1.98;;
47599;SDS011;33323;52.124;6.018;2023-04-29T12:38:43;5.20;;;2.95;;
47599;SDS011;33323;52.124;6.018;2023-04-29T12:41:12;4.93;;;2.25;;
47599;SDS011;33323;52.124;6.018;2023-04-29T12:43:40;4.45;;;2.38;;
47599;SDS011;33323;52.124;6.018;2023-04-29T12:46:08;3.65;;;2.25;;
47599;SDS011;33323;52.124;6.018;2023-04-29T12:48:39;4.15;;;3.03;;
47599;SDS011;33323;52.124;6.018;2023-04-29T12:51:08;6.20;;;2.85;;
47599;SDS011;33323;52.124;6.018;2023-04-29T12:53:37;4.70;;;2.97;;
47599;SDS011;33323;52.124;6.018;2023-04-29T12:56:04;4.38;;;2.58;;
47599;SDS011;33323;52.124;6.018;2023-04-29T12:58:32;5.00;;;2.17;;
47599;SDS011;33323;52.124;6.018;2023-04-29T13:01:02;4.35;;;2.10;;
47599;SDS011;33323;52.124;6.018;2023-04-29T13:03:29;4.60;;;2.45;;
47599;SDS011;33323;52.124;6.018;2023-04-29T13:05:58;4.95;;;2.63;;
47599;SDS011;33323;52.124;6.018;2023-04-29T13:08:26;3.65;;;2.22;;
47599;SDS011;33323;52.124;6.018;2023-04-29T13:10:53;3.95;;;2.35;;
47599;SDS011;33323;52.124;6.018;2023-04-29T13:13:20;5.93;;;2.38;;
47599;SDS011;33323;52.124;6.018;2023-04-29T13:15:47;3.45;;;1.92;;
47599;SDS011;33323;52.124;6.018;2023-04-29T13:18:14;4.70;;;2.00;;
47599;SDS011;33323;52.124;6.018;2023-04-29T13:20:41;6.07;;;2.88;;
47599;SDS011;33323;52.124;6.018;2023-04-29T13:23:09;4.43;;;2.20;;
47599;SDS011;33323;52.124;6.018;2023-04-29T13:25:37;2.28;;;1.40;;
47599;SDS011;33323;52.124;6.018;2023-04-29T13:28:04;3.45;;;1.50;;
47599;SDS011;33323;52.124;6.018;2023-04-29T13:30:32;1.80;;;1.40;;
47599;SDS011;33323;52.124;6.018;2023-04-29T13:32:59;4.30;;;2.00;;
47599;SDS011;33323;52.124;6.018;2023-04-29T13:35:37;2.63;;;1.67;;
47599;SDS011;33323;52.124;6.018;2023-04-29T13:38:08;7.43;;;2.20;;
47599;SDS011;33323;52.124;6.018;2023-04-29T13:40:35;3.70;;;2.33;;
47599;SDS011;33323;52.124;6.018;2023-04-29T13:43:09;4.07;;;2.35;;
47599;SDS011;33323;52.124;6.018;2023-04-29T13:45:41;2.80;;;1.35;;
47599;SDS011;33323;52.124;6.018;2023-04-29T13:48:13;3.92;;;1.92;;
47599;SDS011;33323;52.124;6.018;2023-04-29T13:51:00;2.90;;;1.60;;
47599;SDS011;33323;52.124;6.018;2023-04-29T13:53:30;3.95;;;1.75;;
47599;SDS011;33323;52.124;6.018;2023-04-29T13:56:00;3.00;;;1.70;;
47599;SDS011;33323;52.124;6.018;2023-04-29T13:58:47;4.55;;;1.92;;
47599;SDS011;33323;52.124;6.018;2023-04-29T14:01:18;3.53;;;2.08;;
47599;SDS011;33323;52.124;6.018;2023-04-29T14:04:05;4.05;;;2.35;;
47599;SDS011;33323;52.124;6.018;2023-04-29T14:06:32;4.20;;;2.15;;
47599;SDS011;33323;52.124;6.018;2023-04-29T14:09:00;2.50;;;2.00;;
47599;SDS011;33323;52.124;6.018;2023-04-29T14:11:29;3.92;;;2.08;;
47599;SDS011;33323;52.124;6.018;2023-04-29T14:13:56;2.65;;;2.15;;
47599;SDS011;33323;52.124;6.018;2023-04-29T14:16:23;6.40;;;2.47;;
47599;SDS011;33323;52.124;6.018;2023-04-29T14:18:50;3.70;;;2.40;;
47599;SDS011;33323;52.124;6.018;2023-04-29T14:21:17;4.07;;;2.47;;
47599;SDS011;33323;52.124;6.018;2023-04-29T14:23:48;4.93;;;2.17;;
47599;SDS011;33323;52.124;6.018;2023-04-29T14:26:15;4.45;;;2.75;;
47599;SDS011;33323;52.124;6.018;2023-04-29T14:28:57;5.53;;;2.90;;
47599;SDS011;33323;52.124;6.018;2023-04-29T14:31:26;4.18;;;2.13;;
47599;SDS011;33323;52.124;6.018;2023-04-29T14:33:55;6.18;;;2.75;;
47599;SDS011;33323;52.124;6.018;2023-04-29T14:36:23;5.40;;;2.33;;
47599;SDS011;33323;52.124;6.018;2023-04-29T14:38:51;3.75;;;2.30;;
47599;SDS011;33323;52.124;6.018;2023-04-29T14:41:19;8.10;;;3.10;;
47599;SDS011;33323;52.124;6.018;2023-04-29T14:43:49;8.30;;;2.58;;
47599;SDS011;33323;52.124;6.018;2023-04-29T14:46:16;7.97;;;2.90;;
47599;SDS011;33323;52.124;6.018;2023-04-29T14:48:43;4.93;;;3.20;;
47599;SDS011;33323;52.124;6.018;2023-04-29T14:51:10;5.60;;;2.75;;
47599;SDS011;33323;52.124;6.018;2023-04-29T14:53:37;4.18;;;2.65;;
47599;SDS011;33323;52.124;6.018;2023-04-29T14:56:04;7.00;;;3.58;;
47599;SDS011;33323;52.124;6.018;2023-04-29T14:58:33;8.20;;;3.13;;
47599;SDS011;33323;52.124;6.018;2023-04-29T15:01:00;5.47;;;2.80;;
47599;SDS011;33323;52.124;6.018;2023-04-29T15:03:27;5.18;;;2.78;;
47599;SDS011;33323;52.124;6.018;2023-04-29T15:05:54;6.70;;;3.50;;
47599;SDS011;33323;52.124;6.018;2023-04-29T15:08:21;4.50;;;2.92;;
47599;SDS011;33323;52.124;6.018;2023-04-29T15:10:48;4.00;;;2.55;;
47599;SDS011;33323;52.124;6.018;2023-04-29T15:13:15;9.55;;;2.92;;